Sinsin, Belgium

6:44 AM CET on February 12, 2016 (GMT +0100)
Biron, Erezee Luxenburg Belgium | | Change Station
CLOSE
Current Station
Personal Weather Station
Location: Erezee, WAALS GEWEST
Elevation: 620 ft
Nearby Weather Stations

Elev 620 ft 50.30 °N, 5.46 °E | Updated 18 seconds ago

Overcast
Overcast
36.5 °F
Feels Like 36 °F
N
0.9
Wind Variable Wind from South
Gusts 0.0 mph

Today
High -- | Low -- °F
--% Chance of Precip.
Yesterday
High -- | Low -- °F
Precip. -- in
Pressure 29.56 in
Visibility 6.2 miles
Clouds Overcast 300 ft
Windchill 36 °F
Dew Point 36 °F
Humidity 98%
Rainfall 0.00 in
Snow Depth Not available.
7:56 AM 5:50 PM
Waxing Crescent, 17% visible
METAR EBFS 120525Z 18011KT 9999 OVC003 01/01 Q1001 YLO YLO TEMPO AMB
Pressure 29.56 in
Visibility 6.2 miles
Clouds Overcast 300 ft
Windchill 36 °F
Dew Point 36 °F
Humidity 98%
Rainfall 0.00 in
Snow Depth Not available.
7:56 AM 5:50 PM
Waxing Crescent, 17% visible
METAR EBFS 120525Z 18011KT 9999 OVC003 01/01 Q1001 YLO YLO TEMPO AMB

10-Day Weather Forecast

Almanac

Astronomy

Feb. 12, 2016 Rise Set
Actual Time
Civil Twilight
Nautical Twilight
Astronomical Twilight
Moon
Length of Visible Light
Length of Day
Tomorrow will be .
, % of the Moon is Illuminated

Today's Extremes

Country Highs Country Lows

Community

WunderPhotos

Upload Photos

1,892,269 photos uploaded!

WunderBlog® & News

Nearby

Air Quality

  Air Quality AQ Index Pollutant
Not available.

Snow Depth

Station Depth Elevation

Earthquake Activity

City Distance Mag. Time & Date
Minimum magnitude displayed is 2.5.

Coastal Water Temperatures

Place Temperature

Stations

Nearby Weather Stations

Station Location Temp. Windchill Dew Point Humidity Wind Precip. Elev Updated Type